Sunday, December 17, 2017, 4:32 PM EST
Back to Local

KPHL, Philadelphia International Airpt

Location: Philadelphia, PA, United States Lat: 39.867
Local Time: 4:32 PM EST (21:32 GMT) Lon: -75.233
Time Zone: US/Eastern Elev: 19 ft

Show me the last for .
Show Decoded

2017-12-17 15:54 METAR KPHL 172054Z 00000KT 10SM BKN180 OVC260 06/M02 A3022 RMK AO2 SLP232
                 T00611022 55008 $ =
2017-12-17 14:54 METAR KPHL 171954Z 00000KT 10SM BKN180 OVC260 07/M02 A3022 RMK AO2 SLP231
                 T00671022 $ =
2017-12-17 13:54 METAR KPHL 171854Z 00000KT 10SM BKN160 BKN210 OVC260 06/M03 A3022 RMK AO2 SLP233
                 T00611028 $ =
2017-12-17 12:54 METAR KPHL 171754Z 00000KT 10SM FEW210 OVC260 06/M02 A3024 RMK AO2 SLP240
                 T00561022 10061 20000 58017 $ =
2017-12-17 11:54 METAR KPHL 171654Z 10004KT 10SM FEW220 BKN260 05/M03 A3027 RMK AO2 SLP249
                 T00501028 $ =
2017-12-17 10:54 METAR KPHL 171554Z 06005KT 10SM FEW230 BKN260 04/M03 A3029 RMK AO2 SLP257
                 T00441028 $ =
2017-12-17 09:54 METAR KPHL 171454Z 08006KT 10SM FEW220 BKN250 03/M04 A3029 RMK AO2 SLP257
                 T00281039 52005 $ =
2017-12-17 08:54 METAR KPHL 171354Z 07005KT 10SM BKN250 02/M03 A3029 RMK AO2 SLP255 T00171033 $ =
2017-12-17 07:54 METAR KPHL 171254Z 05005KT 10SM BKN250 01/M04 A3028 RMK AO2 SLP253 T00061039 $ =
2017-12-17 06:54 METAR KPHL 171154Z 07006KT 10SM BKN220 00/M04 A3028 RMK AO2 SLP252 T00001039
                 10028 21011 53010 $ =
2017-12-17 05:54 METAR KPHL 171054Z 07004KT 10SM BKN220 01/M04 A3026 RMK AO2 SLP245 T00061039 $ =
2017-12-17 04:54 METAR KPHL 170954Z 07005KT 10SM FEW055 FEW250 M01/M04 A3024 RMK AO2 SLP241
                 T10061039 $ =
2017-12-17 03:54 METAR KPHL 170854Z 07005KT 10SM FEW055 FEW250 00/M03 A3024 RMK AO2 SLP241
                 T00001033 51012 $ =
2017-12-17 02:54 METAR KPHL 170754Z 00000KT 10SM FEW055 02/M03 A3024 RMK AO2 SLP240 T00171033 $ =
2017-12-17 01:54 METAR KPHL 170654Z 27003KT 10SM FEW055 02/M02 A3023 RMK AO2 SLP235 T00221022 $ =
2017-12-17 00:54 METAR KPHL 170554Z 00000KT 10SM OVC055 03/M02 A3021 RMK AO2 SLP230 T00281017
                 10039 20022 50008 $ =
2017-12-16 23:54 METAR KPHL 170454Z 23003KT 10SM OVC055 03/M02 A3021 RMK AO2 SLP230 T00281017
                 400561061 $ =
2017-12-16 22:54 METAR KPHL 170354Z 20006KT 10SM OVC055 03/M03 A3020 RMK AO2 SLP224 T00331028 $ =
2017-12-16 21:54 METAR KPHL 170254Z 22004KT 10SM OVC055 03/M02 A3019 RMK AO2 SLP221 T00331022
                 51020 $ =
2017-12-16 20:54 METAR KPHL 170154Z 25007KT 10SM OVC060 04/M03 A3017 RMK AO2 SLP217 T00391028 $ =
2017-12-16 19:54 METAR KPHL 170054Z 24010KT 10SM BKN060 04/M03 A3015 RMK AO2 SLP211 T00391033 $ =
2017-12-16 18:54 METAR KPHL 162354Z 23009KT 10SM BKN070 04/M03 A3013 RMK AO2 SLP201 T00391033
                 10056 20039 53025 $ =
2017-12-16 17:54 METAR KPHL 162254Z 23013KT 10SM BKN070 05/M04 A3010 RMK AO2 SLP194 T00501039 $ =
2017-12-16 16:54 METAR KPHL 162154Z 23011KT 10SM SCT060 SCT140 BKN250 04/M04 A3007 RMK AO2 SLP182
                 T00441044 $ =

Support USWX by starting your Amazon purchase here.